Time;durP1;ratioP1;P1;durP2;ratioP2;P2;SDS_P1;SDS_P2;PMS_P1;PMS_P2;Temp;Humidity;BMP_temperature;BMP_pressure;BME280_temperature;BME280_humidity;BME280_pressure;Samples;Min_cycle;Max_cycle;Signal;HPM_P1;HPM_P2
2022/08/12 00:43:34;;;;;;;6.50;5.80;;;25.10;43.50;;;;;;5029649;28;20443;-82
2022/08/12 00:48:46;;;;;;;6.60;5.07;;;25.00;43.60;;;;;;5029122;28;20446;-83
2022/08/12 00:51:12;;;;;;;6.30;5.70;;;25.00;43.70;;;;;;5024480;28;20502;-82
2022/08/12 00:53:38;;;;;;;6.70;5.50;;;25.00;43.70;;;;;;5025453;28;20874;-82
2022/08/12 00:56:05;;;;;;;5.57;5.07;;;25.00;43.80;;;;;;5025629;28;20436;-83
2022/08/12 00:58:32;;;;;;;5.23;4.77;;;25.00;44.00;;;;;;5045940;28;20187;-81
2022/08/12 01:01:07;;;;;;;6.50;5.03;;;25.00;44.10;;;;;;5028532;28;20542;-82
2022/08/12 01:11:54;;;;;;;4.37;4.03;;;24.80;44.20;;;;;;5026868;28;20470;-82
2022/08/12 01:14:24;;;;;;;6.80;4.43;;;24.80;44.10;;;;;;5025072;28;20427;-82
2022/08/12 01:16:54;;;;;;;5.97;4.30;;;24.80;44.10;;;;;;5024599;28;20500;-82
2022/08/12 01:19:22;;;;;;;7.20;4.33;;;24.70;43.90;;;;;;5018032;28;20436;-82
2022/08/12 01:22:25;;;;;;;5.53;4.07;;;24.70;43.90;;;;;;5023008;28;20795;-82
2022/08/12 01:25:11;;;;;;;5.80;4.30;;;24.70;43.80;;;;;;5022767;28;20431;-82
2022/08/12 01:27:39;;;;;;;4.53;4.10;;;24.70;43.80;;;;;;5023478;28;20455;-82
2022/08/12 01:30:08;;;;;;;5.13;4.00;;;24.70;43.90;;;;;;5028954;28;20463;-82
2022/08/12 01:32:37;;;;;;;4.43;4.00;;;24.70;43.90;;;;;;5022825;28;20488;-82
2022/08/12 01:35:10;;;;;;;4.93;4.30;;;24.60;43.90;;;;;;5027842;28;20439;-82
2022/08/12 01:37:54;;;;;;;5.30;4.80;;;24.60;43.90;;;;;;5022984;28;20454;-81
2022/08/12 01:40:27;;;;;;;4.40;4.07;;;24.60;44.00;;;;;;5023796;28;20451;-83
2022/08/12 01:42:57;;;;;;;6.50;4.17;;;24.60;43.90;;;;;;5027672;28;20432;-82
2022/08/12 01:45:24;;;;;;;4.87;4.47;;;24.60;43.90;;;;;;5031366;28;20438;-81
2022/08/12 01:48:22;;;;;;;5.23;4.23;;;24.60;44.00;;;;;;5034136;28;20459;-81
2022/08/12 01:51:03;;;;;;;4.30;4.00;;;24.50;44.00;;;;;;5037792;28;20455;-82
2022/08/12 01:54:05;;;;;;;5.80;4.20;;;24.50;44.10;;;;;;5037839;28;20434;-81
2022/08/12 01:56:50;;;;;;;6.33;4.40;;;24.50;44.10;;;;;;5031860;28;20525;-82
2022/08/12 01:59:55;;;;;;;5.17;4.77;;;24.50;44.10;;;;;;5045436;28;20473;-82
2022/08/12 02:02:56;;;;;;;4.40;4.03;;;24.50;44.10;;;;;;5030570;28;20439;-81
2022/08/12 02:12:04;;;;;;;7.03;4.50;;;24.40;44.20;;;;;;5023564;28;20496;-82
2022/08/12 02:14:42;;;;;;;4.20;3.80;;;24.40;44.20;;;;;;5023334;28;20485;-82
2022/08/12 02:17:44;;;;;;;4.93;4.43;;;24.40;44.30;;;;;;5022947;28;21220;-83
2022/08/12 02:20:38;;;;;;;5.63;3.90;;;24.40;44.30;;;;;;5036390;28;20469;-82
2022/08/12 02:23:06;;;;;;;8.57;4.03;;;24.40;44.30;;;;;;5025811;28;20443;-82
2022/08/12 02:25:37;;;;;;;4.50;4.10;;;24.40;44.50;;;;;;5024466;28;20442;-81
2022/08/12 02:28:03;;;;;;;5.03;4.53;;;24.40;44.50;;;;;;5022727;28;20471;-81
2022/08/12 02:30:31;;;;;;;4.13;3.73;;;24.40;44.50;;;;;;5024175;28;20474;-81
2022/08/12 02:32:59;;;;;;;5.03;4.47;;;24.40;44.60;;;;;;5023791;28;20443;-81
2022/08/12 02:35:28;;;;;;;7.13;4.60;;;24.30;44.90;;;;;;5019113;28;20447;-81
2022/08/12 02:37:57;;;;;;;4.13;3.83;;;24.30;44.80;;;;;;5024213;28;20497;-81
2022/08/12 02:40:24;;;;;;;4.50;4.17;;;24.30;44.80;;;;;;5025317;28;20430;-82
2022/08/12 02:43:18;;;;;;;4.57;4.17;;;24.30;44.80;;;;;;5028328;28;20478;-82
2022/08/12 02:46:02;;;;;;;5.60;4.57;;;24.30;44.90;;;;;;5018906;28;20438;-81
2022/08/12 02:48:33;;;;;;;7.43;5.10;;;24.30;45.20;;;;;;5022242;28;20467;-81
2022/08/12 02:51:10;;;;;;;4.17;3.87;;;24.30;45.00;;;;;;5021927;28;20471;-82
2022/08/12 02:53:38;;;;;;;4.30;4.00;;;24.20;45.00;;;;;;5034801;28;20530;-81
2022/08/12 02:56:05;;;;;;;7.50;4.20;;;24.20;45.10;;;;;;5025302;28;20465;-83
2022/08/12 02:58:32;;;;;;;5.00;4.40;;;24.30;45.10;;;;;;5021194;28;20443;-83
2022/08/12 03:01:00;;;;;;;4.63;4.23;;;24.30;45.20;;;;;;5021799;28;20930;-82
2022/08/12 03:03:32;;;;;;;4.03;3.73;;;24.30;45.30;;;;;;5026207;28;20450;-83
2022/08/12 03:06:14;;;;;;;5.37;4.67;;;24.20;45.10;;;;;;5025097;28;20439;-83
2022/08/12 03:08:43;;;;;;;4.60;4.10;;;24.30;45.20;;;;;;5016769;28;20440;-81
2022/08/12 03:11:33;;;;;;;7.17;4.30;;;24.20;45.20;;;;;;5016769;28;20650;-82
2022/08/12 03:14:00;;;;;;;6.50;5.10;;;24.20;45.30;;;;;;5039297;28;20462;-82
2022/08/12 03:16:30;;;;;;;4.60;4.00;;;24.20;45.50;;;;;;5021808;28;20485;-81
2022/08/12 03:18:57;;;;;;;5.00;4.50;;;24.10;45.40;;;;;;5020124;28;20446;-83
2022/08/12 03:21:24;;;;;;;4.53;4.13;;;24.10;45.50;;;;;;5020148;28;20445;-85
2022/08/12 03:23:54;;;;;;;4.20;3.90;;;24.10;45.50;;;;;;5015641;28;20455;-77
2022/08/12 03:26:24;;;;;;;4.37;4.07;;;24.10;45.60;;;;;;5020441;28;20438;-76
2022/08/12 03:28:55;;;;;;;6.57;4.07;;;24.00;45.70;;;;;;5014139;28;20536;-77
2022/08/12 03:31:31;;;;;;;4.40;3.80;;;24.00;45.80;;;;;;5017039;28;20493;-77
2022/08/12 03:34:09;;;;;;;6.20;4.17;;;23.90;45.90;;;;;;5019279;28;20431;-77
2022/08/12 03:36:37;;;;;;;4.60;4.20;;;23.90;46.00;;;;;;5018936;28;20853;-77
2022/08/12 03:41:51;;;;;;;6.67;4.13;;;23.80;46.20;;;;;;5018654;28;20867;-77
2022/08/12 04:01:24;;;;;;;4.40;3.90;;;23.70;46.40;;;;;;5024742;28;20446;-78
2022/08/12 04:03:51;;;;;;;5.67;4.37;;;23.60;46.40;;;;;;5015431;28;20474;-77
2022/08/12 04:06:25;;;;;;;5.00;4.20;;;23.60;46.40;;;;;;5017016;28;20440;-77
2022/08/12 04:08:56;;;;;;;5.77;4.30;;;23.50;46.50;;;;;;5016214;28;20441;-78
2022/08/12 04:14:19;;;;;;;4.43;4.10;;;23.50;46.70;;;;;;5017261;28;20438;-78
2022/08/12 04:16:49;;;;;;;4.50;4.10;;;23.40;46.80;;;;;;5016698;28;20451;-78
2022/08/12 04:19:16;;;;;;;4.40;4.00;;;23.40;47.00;;;;;;5021159;28;20545;-78
2022/08/12 04:21:42;;;;;;;4.53;4.17;;;23.40;47.00;;;;;;5018723;28;20465;-78
2022/08/12 04:24:08;;;;;;;4.30;3.90;;;23.40;47.10;;;;;;5020615;28;20437;-76
2022/08/12 04:26:34;;;;;;;4.50;4.10;;;23.40;47.10;;;;;;5027517;28;20242;-78
2022/08/12 04:29:01;;;;;;;5.73;4.40;;;23.40;47.20;;;;;;5022996;28;20503;-77
2022/08/12 04:31:34;;;;;;;4.23;3.83;;;23.30;47.30;;;;;;5020529;28;20479;-78
2022/08/12 04:34:00;;;;;;;4.23;3.83;;;23.30;47.50;;;;;;5016746;28;20431;-78
2022/08/12 04:36:26;;;;;;;5.30;4.50;;;23.30;47.60;;;;;;5022237;28;20505;-78
2022/08/12 04:38:56;;;;;;;4.87;4.37;;;23.20;47.60;;;;;;5022515;28;20636;-75
2022/08/12 04:41:23;;;;;;;5.20;4.70;;;23.20;47.70;;;;;;5019461;28;20717;-78
2022/08/12 04:43:49;;;;;;;6.27;4.63;;;23.20;47.90;;;;;;5020187;28;20447;-76
2022/08/12 04:46:15;;;;;;;4.63;4.23;;;23.10;48.00;;;;;;5017166;28;20477;-78
2022/08/12 04:48:41;;;;;;;4.63;4.20;;;23.10;48.10;;;;;;5020898;28;20451;-77
2022/08/12 04:51:07;;;;;;;6.30;4.20;;;23.00;48.20;;;;;;5020466;28;20304;-77
2022/08/12 04:53:34;;;;;;;5.00;4.50;;;23.00;48.30;;;;;;5018203;28;20686;-77
2022/08/12 04:55:59;;;;;;;7.57;4.53;;;23.00;48.30;;;;;;5023938;28;20426;-77
2022/08/12 04:58:28;;;;;;;4.50;4.10;;;22.90;48.50;;;;;;5019820;28;20892;-77
2022/08/12 05:00:53;;;;;;;4.43;4.13;;;22.90;48.50;;;;;;5020121;28;20234;-76
2022/08/12 05:03:19;;;;;;;6.03;3.83;;;22.80;48.60;;;;;;5020133;28;20452;-76
2022/08/12 05:05:45;;;;;;;4.67;4.17;;;22.80;48.60;;;;;;5019284;28;20871;-77
2022/08/12 05:08:12;;;;;;;6.77;4.13;;;22.80;48.70;;;;;;5016631;28;20223;-77
2022/08/12 05:10:38;;;;;;;7.30;4.13;;;22.70;48.70;;;;;;5020568;28;20212;-77
2022/08/12 05:13:09;;;;;;;4.83;4.33;;;22.70;48.90;;;;;;5022620;28;20446;-76
2022/08/12 05:15:38;;;;;;;4.90;4.50;;;22.70;48.90;;;;;;5021574;28;20423;-77
2022/08/12 05:18:04;;;;;;;4.40;3.93;;;22.70;48.90;;;;;;5018945;28;20451;-77
2022/08/12 05:20:30;;;;;;;7.03;3.90;;;22.70;49.00;;;;;;5016889;28;20486;-77
2022/08/12 05:23:17;;;;;;;14.30;4.77;;;22.70;49.00;;;;;;5021906;28;20192;-77
2022/08/12 05:25:45;;;;;;;4.80;4.03;;;22.70;49.00;;;;;;5017866;28;20192;-77
2022/08/12 05:28:12;;;;;;;4.20;3.83;;;22.70;49.60;;;;;;5023880;28;20475;-77
2022/08/12 05:30:40;;;;;;;5.03;4.63;;;22.70;49.20;;;;;;5021736;28;20475;-77
2022/08/12 05:33:06;;;;;;;9.63;4.93;;;22.60;49.30;;;;;;5020136;28;20539;-78
2022/08/12 05:35:40;;;;;;;5.50;4.33;;;22.60;49.50;;;;;;5016043;28;20985;-76
2022/08/12 05:41:00;;;;;;;4.80;4.40;;;22.50;49.60;;;;;;5026663;28;20431;-77
2022/08/12 05:43:26;;;;;;;4.40;4.00;;;22.60;49.60;;;;;;5021490;28;20514;-76
2022/08/12 05:45:52;;;;;;;4.90;4.40;;;22.60;49.70;;;;;;5024376;28;20456;-76
2022/08/12 05:48:18;;;;;;;6.40;4.43;;;22.50;49.70;;;;;;5019141;28;20981;-76
2022/08/12 05:50:45;;;;;;;4.30;3.90;;;22.50;49.70;;;;;;5022099;28;20304;-76
2022/08/12 05:53:12;;;;;;;5.60;4.90;;;22.50;49.90;;;;;;5021588;28;21003;-76
2022/08/12 05:55:37;;;;;;;4.40;4.00;;;22.50;50.00;;;;;;5023062;28;20462;-75
2022/08/12 05:58:04;;;;;;;5.87;4.20;;;22.50;50.10;;;;;;5023211;28;20468;-76
2022/08/12 06:00:31;;;;;;;4.73;4.33;;;22.50;50.10;;;;;;5023219;28;20185;-76
2022/08/12 06:03:01;;;;;;;4.27;3.87;;;22.50;50.00;;;;;;5020273;28;20439;-76
2022/08/12 06:05:35;;;;;;;5.27;4.00;;;22.50;50.10;;;;;;5020322;28;20548;-76
2022/08/12 06:08:05;;;;;;;4.73;4.30;;;22.60;50.40;;;;;;5019769;28;20451;-76
2022/08/12 06:10:39;;;;;;;6.30;4.20;;;22.60;50.30;;;;;;5031612;28;21072;-76
2022/08/12 06:13:06;;;;;;;4.67;4.10;;;22.70;50.20;;;;;;5016400;28;20469;-76
2022/08/12 06:15:36;;;;;;;5.50;4.30;;;22.70;50.10;;;;;;5018646;28;20934;-76
2022/08/12 06:18:09;;;;;;;4.80;4.30;;;22.70;50.00;;;;;;5020847;28;20447;-75
2022/08/12 06:20:37;;;;;;;7.93;3.73;;;22.70;50.00;;;;;;5017593;28;20485;-75
2022/08/12 06:23:04;;;;;;;4.80;4.30;;;22.70;50.00;;;;;;5020889;28;20431;-75
2022/08/12 06:25:30;;;;;;;6.30;4.67;;;22.80;50.20;;;;;;5017295;28;20427;-75
2022/08/12 06:27:58;;;;;;;4.50;4.10;;;22.90;50.40;;;;;;5018930;28;20455;-76
2022/08/12 06:30:25;;;;;;;6.17;4.70;;;22.90;50.10;;;;;;5017511;28;20212;-75
2022/08/12 06:32:51;;;;;;;8.90;4.00;;;23.00;50.20;;;;;;5018699;28;21756;-75
2022/08/12 06:35:18;;;;;;;4.80;4.43;;;23.00;50.30;;;;;;5019779;28;20577;-75
2022/08/12 06:37:45;;;;;;;4.53;3.90;;;23.00;50.30;;;;;;5014630;28;20451;-75
2022/08/12 06:40:12;;;;;;;6.70;3.80;;;23.10;50.20;;;;;;5018701;28;20430;-76
2022/08/12 06:42:48;;;;;;;12.03;4.70;;;23.10;50.20;;;;;;5016891;28;20839;-76
2022/08/12 06:45:14;;;;;;;6.60;4.40;;;23.20;50.10;;;;;;5018773;28;20560;-76
2022/08/12 06:47:40;;;;;;;7.50;4.30;;;23.20;50.10;;;;;;5017447;28;20474;-75
2022/08/12 06:50:07;;;;;;;4.67;3.90;;;23.20;50.20;;;;;;5017185;28;20463;-76
2022/08/12 06:52:33;;;;;;;5.00;4.60;;;23.30;50.10;;;;;;5016461;28;20419;-75
2022/08/12 06:54:58;;;;;;;5.23;4.63;;;23.30;49.90;;;;;;5028402;28;20424;-76
2022/08/12 06:57:28;;;;;;;4.40;4.03;;;23.30;49.90;;;;;;5018283;28;20567;-76
2022/08/12 06:59:54;;;;;;;6.20;4.47;;;23.40;50.00;;;;;;5014559;28;20234;-76
2022/08/12 07:02:21;;;;;;;4.93;4.53;;;23.40;50.00;;;;;;5016816;28;20818;-76
2022/08/12 07:04:47;;;;;;;4.50;4.10;;;23.50;49.90;;;;;;5015782;28;21208;-76
2022/08/12 07:07:13;;;;;;;3.83;3.50;;;23.50;49.80;;;;;;5013952;28;20459;-76
2022/08/12 07:09:41;;;;;;;4.07;3.77;;;23.50;50.00;;;;;;5018604;28;20439;-76
2022/08/12 07:12:18;;;;;;;5.00;4.37;;;23.60;49.90;;;;;;5013583;28;20181;-75
2022/08/12 07:14:50;;;;;;;5.13;4.13;;;23.70;49.80;;;;;;5012088;28;20427;-76
2022/08/12 07:17:16;;;;;;;5.33;4.50;;;23.70;49.70;;;;;;5015646;28;20448;-76
2022/08/12 07:19:42;;;;;;;7.80;4.20;;;23.80;49.80;;;;;;5014800;28;20423;-76
2022/08/12 07:22:10;;;;;;;5.17;4.37;;;23.80;49.70;;;;;;5013795;28;20457;-77
2022/08/12 07:24:35;;;;;;;4.80;4.20;;;23.80;49.60;;;;;;5011356;28;20526;-76
2022/08/12 07:27:01;;;;;;;4.57;4.10;;;23.90;49.70;;;;;;5018474;28;20988;-76
2022/08/12 07:29:27;;;;;;;5.30;4.10;;;24.00;49.70;;;;;;5013276;28;20219;-76
2022/08/12 07:31:53;;;;;;;4.63;4.20;;;24.00;49.70;;;;;;5018645;28;20204;-76
2022/08/12 07:34:19;;;;;;;7.20;4.50;;;24.10;49.60;;;;;;5014637;28;20709;-76
2022/08/12 07:36:47;;;;;;;4.33;3.80;;;24.10;49.60;;;;;;5011906;28;20215;-76
2022/08/12 07:39:13;;;;;;;6.73;4.40;;;24.10;49.50;;;;;;5015477;28;20626;-76
2022/08/12 07:41:39;;;;;;;4.63;4.20;;;24.20;49.60;;;;;;5018659;28;20427;-76
2022/08/12 07:44:07;;;;;;;5.97;4.90;;;24.30;49.50;;;;;;5019303;28;20212;-76
2022/08/12 07:46:42;;;;;;;5.60;4.77;;;24.30;49.50;;;;;;5015180;28;20200;-77
2022/08/12 07:49:11;;;;;;;6.23;4.20;;;24.40;49.60;;;;;;5016729;28;20435;-77
2022/08/12 07:51:37;;;;;;;9.63;4.50;;;24.40;49.50;;;;;;5018640;28;20562;-77
2022/08/12 07:54:08;;;;;;;7.30;4.20;;;24.50;49.50;;;;;;5017820;28;20803;-77
2022/08/12 07:56:37;;;;;;;7.80;4.93;;;24.50;49.50;;;;;;5010928;28;20456;-77
2022/08/12 07:59:04;;;;;;;5.07;4.57;;;24.60;49.50;;;;;;5022272;28;21107;-77
2022/08/12 08:01:31;;;;;;;6.43;4.33;;;24.70;49.50;;;;;;5022781;28;20435;-77
2022/08/12 08:06:42;;;;;;;5.60;4.30;;;24.80;49.30;;;;;;5020714;28;21378;-76
2022/08/12 08:09:12;;;;;;;8.60;4.20;;;24.90;49.00;;;;;;5024293;28;20427;-76
2022/08/12 08:14:31;;;;;;;6.03;4.63;;;25.00;48.90;;;;;;5021070;28;20492;-76
2022/08/12 08:16:59;;;;;;;6.90;4.27;;;25.10;48.90;;;;;;5017298;28;21036;-77
2022/08/12 08:19:27;;;;;;;4.47;4.07;;;25.20;48.90;;;;;;5013693;28;20430;-76
2022/08/12 08:21:54;;;;;;;4.90;4.50;;;25.20;48.90;;;;;;5019034;28;20529;-77
2022/08/12 08:24:26;;;;;;;4.93;4.00;;;25.30;48.70;;;;;;5008409;28;20851;-77
2022/08/12 08:26:55;;;;;;;5.83;4.33;;;25.40;48.30;;;;;;5019666;28;20473;-77
2022/08/12 08:29:22;;;;;;;5.17;4.27;;;25.50;48.10;;;;;;5021119;28;20454;-77
2022/08/12 08:31:52;;;;;;;4.30;3.90;;;25.50;47.90;;;;;;5019411;28;20549;-77
2022/08/12 08:34:19;;;;;;;4.47;4.10;;;25.60;47.70;;;;;;5021092;28;20441;-77
2022/08/12 08:36:45;;;;;;;11.23;4.00;;;25.80;47.20;;;;;;5037715;28;22590;-77
2022/08/12 08:39:13;;;;;;;5.83;3.73;;;25.90;46.90;;;;;;5035250;28;20457;-76
2022/08/12 08:44:23;;;;;;;4.33;3.93;;;26.00;46.50;;;;;;5036935;28;20457;-77
2022/08/12 08:46:49;;;;;;;4.87;4.47;;;26.10;46.40;;;;;;5038975;28;20561;-77
2022/08/12 08:49:16;;;;;;;10.20;4.20;;;26.10;46.40;;;;;;5034946;28;20244;-77
2022/08/12 08:51:46;;;;;;;9.70;3.57;;;26.20;46.30;;;;;;5038847;28;20197;-76
2022/08/12 08:54:12;;;;;;;5.30;4.20;;;26.20;45.90;;;;;;5040427;28;20432;-77
2022/08/12 08:56:48;;;;;;;4.83;4.10;;;26.30;46.20;;;;;;5030400;28;21098;-77
2022/08/12 08:59:15;;;;;;;5.83;3.80;;;26.40;45.30;;;;;;5023426;28;20189;-77
2022/08/12 09:01:42;;;;;;;5.37;4.20;;;26.40;45.30;;;;;;5029060;28;20455;-78
2022/08/12 09:04:11;;;;;;;5.10;3.93;;;26.40;45.30;;;;;;5031468;28;20431;-78
2022/08/12 09:06:41;;;;;;;5.00;3.80;;;26.50;45.60;;;;;;5027829;28;20481;-75
2022/08/12 09:09:08;;;;;;;5.03;3.87;;;26.60;45.70;;;;;;5024766;28;20527;-77
2022/08/12 09:14:18;;;;;;;3.83;3.53;;;26.80;44.80;;;;;;5027643;28;20464;-78
2022/08/12 09:16:43;;;;;;;3.70;3.40;;;26.90;44.10;;;;;;5021659;28;20447;-77
2022/08/12 09:19:12;;;;;;;5.80;3.40;;;27.00;44.10;;;;;;5020177;28;20341;-76
2022/08/12 09:21:41;;;;;;;4.10;3.70;;;27.00;43.70;;;;;;5019351;28;20243;-75
2022/08/12 09:24:07;;;;;;;5.60;3.47;;;27.10;43.30;;;;;;5022083;28;20485;-75
2022/08/12 09:26:34;;;;;;;4.13;3.63;;;27.10;42.90;;;;;;5033086;28;20532;-77
2022/08/12 09:29:00;;;;;;;4.33;3.80;;;27.20;42.60;;;;;;5018649;28;20466;-77
2022/08/12 09:31:26;;;;;;;4.20;3.80;;;27.30;42.30;;;;;;5018013;28;20459;-78
2022/08/12 09:33:53;;;;;;;3.90;3.60;;;27.30;42.50;;;;;;5017552;28;20197;-77
2022/08/12 09:36:20;;;;;;;5.53;3.90;;;27.40;42.40;;;;;;5019853;28;20789;-77
2022/08/12 09:38:46;;;;;;;3.60;3.30;;;27.50;42.40;;;;;;5020846;28;20445;-77
2022/08/12 09:41:15;;;;;;;3.90;3.50;;;27.50;42.10;;;;;;5021493;28;20462;-77
2022/08/12 09:46:32;;;;;;;3.40;3.10;;;27.60;42.40;;;;;;5019888;28;20492;-77
2022/08/12 09:48:58;;;;;;;5.67;3.50;;;27.70;41.50;;;;;;5017166;28;20461;-77
2022/08/12 09:51:26;;;;;;;5.53;4.73;;;27.80;41.50;;;;;;5019265;28;20463;-78
2022/08/12 09:53:51;;;;;;;4.07;3.70;;;27.80;41.40;;;;;;5018693;28;20427;-76
2022/08/12 09:56:18;;;;;;;4.20;3.90;;;27.90;40.70;;;;;;5020666;28;21210;-78
2022/08/12 09:58:46;;;;;;;4.30;3.90;;;27.90;41.00;;;;;;5023113;28;20181;-77
2022/08/12 10:01:12;;;;;;;6.70;4.20;;;28.00;40.90;;;;;;5017060;28;21000;-77
2022/08/12 10:03:40;;;;;;;3.67;3.30;;;28.10;40.70;;;;;;5023759;28;20647;-77
2022/08/12 10:06:06;;;;;;;4.20;3.70;;;28.10;41.00;;;;;;5020284;28;20511;-77
2022/08/12 10:08:34;;;;;;;3.97;3.57;;;28.00;40.80;;;;;;5012830;28;20713;-77
2022/08/12 10:13:48;;;;;;;3.90;3.60;;;28.10;40.80;;;;;;5017071;28;20549;-75
2022/08/12 10:16:23;;;;;;;3.47;3.17;;;28.20;41.00;;;;;;5020445;28;20465;-77
2022/08/12 10:18:56;;;;;;;4.13;3.73;;;28.20;41.20;;;;;;5030824;28;20420;-78
2022/08/12 10:21:29;;;;;;;4.20;3.90;;;28.30;41.30;;;;;;5020142;28;20486;-77
2022/08/12 10:23:56;;;;;;;4.00;3.70;;;28.30;41.10;;;;;;5018589;28;20463;-77
2022/08/12 10:31:53;;;;;;;3.67;3.37;;;28.50;41.40;;;;;;5018046;28;20641;-77
2022/08/12 10:34:21;;;;;;;4.63;4.23;;;28.50;41.30;;;;;;5017543;28;20885;-77
2022/08/12 10:36:48;;;;;;;4.90;3.80;;;28.50;41.30;;;;;;5017598;28;20208;-77
2022/08/12 10:39:16;;;;;;;5.07;3.70;;;28.60;41.00;;;;;;5017595;28;20439;-77
2022/08/12 10:44:27;;;;;;;5.00;3.90;;;28.70;40.70;;;;;;5018645;28;21309;-77
2022/08/12 10:46:54;;;;;;;4.50;3.80;;;28.80;40.70;;;;;;5019162;28;20467;-77
2022/08/12 10:49:26;;;;;;;4.30;3.90;;;28.80;40.80;;;;;;5019852;28;20501;-77
2022/08/12 10:51:53;;;;;;;4.80;4.40;;;28.80;40.60;;;;;;5018125;28;20571;-77
2022/08/12 10:54:22;;;;;;;7.17;3.60;;;28.90;40.40;;;;;;5016130;28;21150;-77
2022/08/12 10:56:49;;;;;;;4.87;4.37;;;29.00;40.30;;;;;;5016437;28;20769;-77
2022/08/12 10:59:16;;;;;;;4.10;3.80;;;29.00;40.20;;;;;;5013992;28;21294;-77
2022/08/12 11:01:42;;;;;;;4.20;3.80;;;29.10;40.70;;;;;;5020662;28;20430;-77
2022/08/12 11:04:12;;;;;;;4.60;4.10;;;29.10;40.70;;;;;;5019576;28;20454;-77
2022/08/12 11:06:46;;;;;;;6.27;3.90;;;29.10;40.70;;;;;;5021327;28;20936;-77
2022/08/12 11:09:29;;;;;;;5.67;3.73;;;29.10;41.00;;;;;;5022408;28;20426;-77
2022/08/12 11:11:58;;;;;;;5.40;4.17;;;29.10;40.90;;;;;;5023779;28;20466;-77
2022/08/12 11:14:30;;;;;;;5.10;3.60;;;29.20;40.40;;;;;;5021394;28;20901;-77
2022/08/12 11:16:58;;;;;;;5.73;3.70;;;29.30;40.40;;;;;;5021130;28;20459;-77
2022/08/12 11:19:24;;;;;;;4.07;3.67;;;29.40;40.00;;;;;;5034953;28;20419;-77
2022/08/12 11:21:51;;;;;;;5.73;3.40;;;29.50;39.70;;;;;;5017464;28;20395;-77
2022/08/12 11:24:17;;;;;;;6.77;3.57;;;29.60;39.40;;;;;;5018780;28;20887;-76
2022/08/12 11:26:43;;;;;;;3.90;3.50;;;29.60;39.20;;;;;;5016160;28;20455;-76
2022/08/12 11:29:09;;;;;;;6.10;4.60;;;29.70;39.20;;;;;;5014927;28;20472;-76
2022/08/12 11:31:34;;;;;;;6.37;3.60;;;29.80;39.10;;;;;;5015166;28;20691;-77
2022/08/12 11:34:00;;;;;;;3.70;3.33;;;29.70;38.50;;;;;;5016286;28;20811;-77
2022/08/12 11:36:26;;;;;;;4.33;3.93;;;29.80;38.90;;;;;;5032261;28;20201;-77
2022/08/12 11:38:53;;;;;;;3.90;3.60;;;29.90;38.70;;;;;;5012872;28;20198;-77
2022/08/12 11:41:18;;;;;;;4.33;3.23;;;30.00;38.60;;;;;;5013160;28;20195;-77
2022/08/12 11:43:44;;;;;;;4.33;3.93;;;30.00;38.30;;;;;;5016548;28;20430;-77
2022/08/12 11:46:10;;;;;;;7.33;4.00;;;30.10;38.50;;;;;;5015024;28;20275;-76
2022/08/12 11:48:39;;;;;;;4.50;4.10;;;30.30;38.50;;;;;;5014566;28;20184;-76
2022/08/12 11:51:06;;;;;;;4.00;3.70;;;30.40;38.50;;;;;;5013552;28;20580;-78
2022/08/12 11:53:32;;;;;;;5.43;4.10;;;30.50;38.30;;;;;;5012681;28;20457;-77
2022/08/12 11:55:58;;;;;;;5.00;3.53;;;30.60;37.90;;;;;;5013124;28;20507;-77
2022/08/12 11:58:24;;;;;;;6.50;3.40;;;30.80;37.20;;;;;;5013518;28;20428;-77
2022/08/12 12:00:49;;;;;;;3.97;3.67;;;30.90;37.20;;;;;;5016341;28;20187;-77
2022/08/12 12:03:15;;;;;;;3.93;3.63;;;31.10;37.10;;;;;;5010554;28;20215;-77
2022/08/12 12:05:41;;;;;;;3.80;3.50;;;31.20;36.70;;;;;;5012640;28;20180;-81
2022/08/12 12:08:06;;;;;;;4.50;3.80;;;31.40;36.00;;;;;;5017383;28;20205;-77
2022/08/12 12:10:32;;;;;;;11.73;4.10;;;31.60;36.10;;;;;;5015270;28;20387;-76
2022/08/12 12:12:58;;;;;;;8.00;3.93;;;31.90;36.20;;;;;;5021312;28;20173;-77
2022/08/12 12:15:24;;;;;;;4.17;3.87;;;32.20;35.90;;;;;;5015190;28;20185;-77
2022/08/12 12:17:51;;;;;;;3.73;3.33;;;32.50;35.50;;;;;;5017002;28;20208;-77
2022/08/12 12:20:17;;;;;;;6.03;3.50;;;32.90;35.00;;;;;;5015564;28;21202;-77
2022/08/12 12:22:43;;;;;;;3.60;3.30;;;33.20;34.80;;;;;;5013910;28;20447;-77
2022/08/12 12:25:09;;;;;;;6.47;3.50;;;33.50;34.60;;;;;;5017946;28;20261;-79
2022/08/12 12:27:44;;;;;;;4.10;3.10;;;33.70;34.20;;;;;;5011951;28;20278;-77
2022/08/12 12:30:10;;;;;;;3.80;3.40;;;33.90;33.70;;;;;;5010123;28;20491;-76
2022/08/12 12:32:35;;;;;;;5.33;4.07;;;33.90;33.50;;;;;;5015057;28;20810;-76
2022/08/12 12:35:01;;;;;;;4.03;3.60;;;34.10;33.40;;;;;;5014148;28;20409;-76
2022/08/12 12:37:27;;;;;;;5.93;3.90;;;34.20;33.70;;;;;;5016774;28;20284;-76
2022/08/12 12:39:52;;;;;;;3.90;3.60;;;34.40;33.50;;;;;;5017323;28;20193;-76
2022/08/12 12:42:18;;;;;;;4.53;3.53;;;34.60;33.40;;;;;;5016776;28;20190;-76
2022/08/12 12:44:44;;;;;;;3.80;3.50;;;34.70;32.70;;;;;;5017320;28;20649;-77
2022/08/12 12:47:10;;;;;;;4.43;3.70;;;34.90;32.30;;;;;;5022086;28;20216;-76
2022/08/12 12:49:35;;;;;;;3.57;3.27;;;35.00;31.90;;;;;;5016614;28;20181;-76
2022/08/12 12:52:01;;;;;;;4.80;3.50;;;35.20;31.50;;;;;;5016194;28;20438;-76
2022/08/12 12:54:26;;;;;;;8.10;3.50;;;35.40;31.10;;;;;;5016052;28;20180;-76
2022/08/12 12:56:53;;;;;;;3.53;3.23;;;35.50;31.00;;;;;;5014584;28;20787;-76
2022/08/12 12:59:22;;;;;;;3.87;3.53;;;35.50;30.70;;;;;;5019801;28;20179;-77
2022/08/12 13:01:47;;;;;;;3.97;3.40;;;35.50;30.80;;;;;;5016651;28;21309;-77
2022/08/12 13:04:13;;;;;;;5.20;3.30;;;35.60;30.90;;;;;;5017073;28;20443;-76
2022/08/12 13:06:40;;;;;;;4.10;3.33;;;35.80;31.00;;;;;;5017261;28;20208;-78
2022/08/12 13:09:05;;;;;;;4.10;3.40;;;36.00;30.70;;;;;;5016991;28;20177;-77
2022/08/12 13:11:31;;;;;;;3.50;3.20;;;36.00;30.30;;;;;;5014988;28;20425;-76
2022/08/12 13:13:58;;;;;;;3.37;3.00;;;36.10;30.40;;;;;;5019661;28;20535;-76
2022/08/12 13:16:28;;;;;;;4.53;3.30;;;36.20;30.00;;;;;;5015248;28;20442;-77
2022/08/12 13:18:54;;;;;;;4.00;3.30;;;36.20;30.40;;;;;;5017192;28;20882;-75
2022/08/12 13:21:20;;;;;;;4.40;3.53;;;36.30;30.30;;;;;;5012985;28;20434;-77
2022/08/12 13:23:48;;;;;;;5.77;5.20;;;36.40;30.40;;;;;;5013208;28;20443;-77
2022/08/12 13:26:17;;;;;;;3.37;3.07;;;36.60;30.00;;;;;;5013201;28;20440;-76
2022/08/12 13:28:44;;;;;;;3.50;3.20;;;36.70;30.00;;;;;;5017094;28;20562;-77
2022/08/12 13:31:11;;;;;;;4.03;3.60;;;36.80;29.90;;;;;;5013980;28;21109;-76
2022/08/12 13:33:38;;;;;;;4.17;3.63;;;36.90;29.80;;;;;;5008568;28;20435;-76
2022/08/12 13:36:04;;;;;;;4.37;3.97;;;37.10;29.70;;;;;;5011142;28;20411;-76
2022/08/12 13:38:51;;;;;;;3.87;3.47;;;37.40;29.50;;;;;;5012089;28;20477;-77
2022/08/12 13:41:31;;;;;;;5.47;3.00;;;37.90;29.50;;;;;;5009961;28;20883;-76
2022/08/12 13:44:01;;;;;;;4.10;3.70;;;38.10;28.60;;;;;;5013489;28;20493;-76
2022/08/12 13:46:27;;;;;;;3.50;3.20;;;38.30;28.10;;;;;;5009614;28;20542;-75
2022/08/12 13:48:55;;;;;;;3.07;2.77;;;38.60;28.50;;;;;;5010970;28;20567;-75
2022/08/12 13:51:21;;;;;;;3.23;2.87;;;38.90;28.50;;;;;;5018096;28;20481;-75
2022/08/12 13:53:47;;;;;;;3.10;2.90;;;39.10;28.50;;;;;;5013473;28;20573;-76
2022/08/12 13:56:13;;;;;;;3.70;3.40;;;39.30;28.30;;;;;;5014760;28;20473;-76
2022/08/12 13:58:48;;;;;;;3.90;3.60;;;39.50;28.20;;;;;;5013988;28;20202;-75
2022/08/12 14:01:16;;;;;;;4.67;3.10;;;39.70;27.90;;;;;;5013737;28;20435;-75
2022/08/12 14:03:43;;;;;;;3.30;3.00;;;40.00;27.70;;;;;;5014326;28;20514;-75
2022/08/12 14:06:11;;;;;;;4.17;3.23;;;40.20;27.10;;;;;;5012741;28;20524;-76
2022/08/12 14:08:37;;;;;;;4.10;3.13;;;40.10;26.90;;;;;;5016634;28;20466;-75
2022/08/12 14:11:02;;;;;;;5.03;3.47;;;40.10;26.90;;;;;;5012384;28;20516;-76
2022/08/12 14:13:29;;;;;;;6.23;3.27;;;40.40;27.10;;;;;;5013814;28;20499;-75
2022/08/12 14:15:58;;;;;;;3.37;2.80;;;40.50;26.70;;;;;;5016675;28;20230;-75
2022/08/12 14:18:24;;;;;;;3.83;3.53;;;40.50;26.50;;;;;;5029292;28;21971;-75
2022/08/12 14:21:02;;;;;;;3.40;2.80;;;40.70;26.70;;;;;;5013549;28;20442;-75
2022/08/12 14:23:33;;;;;;;3.40;3.10;;;41.00;26.50;;;;;;5011186;28;20507;-75
2022/08/12 14:26:01;;;;;;;4.73;2.90;;;41.10;26.20;;;;;;5012723;28;21347;-74
2022/08/12 14:28:29;;;;;;;3.40;3.10;;;41.20;26.20;;;;;;5018576;28;20462;-76
2022/08/12 14:31:00;;;;;;;3.20;3.00;;;41.40;26.10;;;;;;5014917;28;20546;-76
2022/08/12 14:33:25;;;;;;;2.80;2.60;;;41.90;26.00;;;;;;5013901;28;20431;-76
2022/08/12 14:35:52;;;;;;;3.50;3.20;;;42.30;25.90;;;;;;5015600;28;20437;-76
2022/08/12 14:38:26;;;;;;;3.40;3.10;;;42.70;26.00;;;;;;5015142;28;20203;-75
2022/08/12 14:40:57;;;;;;;6.23;3.00;;;43.10;25.20;;;;;;5012001;28;20553;-76
2022/08/12 14:43:28;;;;;;;3.10;2.80;;;43.40;25.10;;;;;;5012225;28;20437;-76
2022/08/12 14:45:57;;;;;;;3.93;3.10;;;43.40;24.80;;;;;;5015043;28;20446;-75